Time;durP1;ratioP1;P1;durP2;ratioP2;P2;SDS_P1;SDS_P2;PMS_P1;PMS_P2;Temp;Humidity;BMP_temperature;BMP_pressure;BME280_temperature;BME280_humidity;BME280_pressure;Samples;Min_cycle;Max_cycle;Signal;HPM_P1;HPM_P2
2022/06/11 00:03:33;;;;;;;3.50;1.70;;;;;;;;;;9504949;30;20056;-63
2022/06/11 00:08:29;;;;;;;4.03;1.65;;;;;;;;;;9512198;30;20075;-63
2022/06/11 00:13:23;;;;;;;4.18;2.90;;;;;;;;;;9501966;30;20432;-63
2022/06/11 00:18:19;;;;;;;6.20;1.85;;;;;;;;;;9511910;30;20064;-63
2022/06/11 00:23:14;;;;;;;4.13;1.50;;;;;;;;;;9512193;30;20063;-63
2022/06/11 00:28:07;;;;;;;2.55;1.73;;;;;;;;;;9512107;30;20461;-63
2022/06/11 00:33:01;;;;;;;2.90;1.40;;;;;;;;;;9511493;30;20101;-62
2022/06/11 00:37:57;;;;;;;2.28;1.70;;;;;;;;;;9495724;30;20068;-63
2022/06/11 00:42:51;;;;;;;5.40;2.75;;;;;;;;;;9510990;30;20052;-63
2022/06/11 00:47:50;;;;;;;4.68;2.40;;;;;;;;;;9510758;30;20060;-63
2022/06/11 00:52:45;;;;;;;2.57;2.37;;;;;;;;;;9522678;30;20064;-63
2022/06/11 00:57:43;;;;;;;2.83;2.30;;;;;;;;;;9524190;30;20390;-62
2022/06/11 01:02:39;;;;;;;4.93;3.45;;;;;;;;;;9513128;30;20493;-63
2022/06/11 01:07:42;;;;;;;6.25;2.60;;;;;;;;;;9522089;30;20063;-63
2022/06/11 01:12:53;;;;;;;4.32;2.58;;;;;;;;;;9523637;30;20470;-63
2022/06/11 01:18:11;;;;;;;2.40;2.15;;;;;;;;;;9513202;30;20536;-63
2022/06/11 01:23:26;;;;;;;4.13;2.33;;;;;;;;;;9509230;30;20428;-63
2022/06/11 01:28:48;;;;;;;3.25;2.53;;;;;;;;;;9509111;30;20063;-62
2022/06/11 01:34:04;;;;;;;5.43;2.85;;;;;;;;;;9506586;30;20052;-63
2022/06/11 01:39:17;;;;;;;4.13;1.92;;;;;;;;;;9513270;30;20084;-63
2022/06/11 01:44:18;;;;;;;1.40;1.27;;;;;;;;;;9508760;30;20060;-63
2022/06/11 01:49:21;;;;;;;2.03;1.70;;;;;;;;;;9508885;30;20067;-63
2022/06/11 01:54:40;;;;;;;3.33;1.20;;;;;;;;;;9528692;30;20420;-63
2022/06/11 01:59:43;;;;;;;4.30;1.65;;;;;;;;;;9511130;30;20142;-63
2022/06/11 02:05:06;;;;;;;1.20;1.10;;;;;;;;;;9514332;30;20570;-63
2022/06/11 02:10:05;;;;;;;2.42;1.30;;;;;;;;;;9507845;30;20109;-63
2022/06/11 02:15:20;;;;;;;2.15;1.20;;;;;;;;;;9503137;30;20063;-63
2022/06/11 02:20:39;;;;;;;4.90;1.30;;;;;;;;;;9509326;30;20086;-63
2022/06/11 02:25:42;;;;;;;1.30;1.20;;;;;;;;;;9488992;30;20409;-62
2022/06/11 02:30:41;;;;;;;3.30;1.20;;;;;;;;;;9507056;30;20517;-63
2022/06/11 02:35:37;;;;;;;3.53;1.20;;;;;;;;;;9526276;30;20470;-63
2022/06/11 02:40:35;;;;;;;7.28;1.33;;;;;;;;;;9525342;30;20083;-63
2022/06/11 02:45:29;;;;;;;1.58;1.45;;;;;;;;;;9507250;30;20083;-63
2022/06/11 02:50:27;;;;;;;1.77;1.35;;;;;;;;;;9506470;30;20172;-62
2022/06/11 02:55:25;;;;;;;4.25;1.20;;;;;;;;;;9506188;30;20539;-63
2022/06/11 03:00:26;;;;;;;1.80;1.20;;;;;;;;;;9506453;30;20056;-62
2022/06/11 03:05:23;;;;;;;1.98;1.42;;;;;;;;;;9506083;30;20086;-63
2022/06/11 03:10:21;;;;;;;3.45;1.20;;;;;;;;;;9505906;30;20067;-62
2022/06/11 03:15:16;;;;;;;3.90;1.40;;;;;;;;;;9506005;30;20056;-63
2022/06/11 03:20:11;;;;;;;2.25;1.40;;;;;;;;;;9506075;30;20052;-63
2022/06/11 03:25:08;;;;;;;8.52;1.42;;;;;;;;;;9506000;30;20513;-63
2022/06/11 03:30:06;;;;;;;1.40;1.20;;;;;;;;;;9505648;30;20051;-63
2022/06/11 03:34:59;;;;;;;1.45;1.10;;;;;;;;;;9517599;30;20045;-63
2022/06/11 03:39:54;;;;;;;1.40;1.30;;;;;;;;;;9514472;30;20060;-63
2022/06/11 03:44:49;;;;;;;4.80;1.40;;;;;;;;;;9514054;30;20060;-63
2022/06/11 03:49:45;;;;;;;3.45;1.45;;;;;;;;;;9513936;30;20183;-63
2022/06/11 03:54:39;;;;;;;1.40;1.30;;;;;;;;;;9507633;30;20497;-62
2022/06/11 03:59:33;;;;;;;1.38;1.25;;;;;;;;;;9503876;30;20056;-62
2022/06/11 04:04:27;;;;;;;3.67;1.65;;;;;;;;;;9515386;30;20466;-63
2022/06/11 04:09:29;;;;;;;4.63;1.63;;;;;;;;;;9513451;30;20060;-62
2022/06/11 04:14:24;;;;;;;3.83;1.30;;;;;;;;;;9523313;30;20059;-63
2022/06/11 04:19:22;;;;;;;1.30;1.20;;;;;;;;;;9516742;30;20080;-63
2022/06/11 04:24:18;;;;;;;3.30;1.45;;;;;;;;;;9489637;30;20516;-63
2022/06/11 04:29:19;;;;;;;3.10;1.42;;;;;;;;;;9523707;30;20076;-63
2022/06/11 04:34:14;;;;;;;1.83;1.30;;;;;;;;;;9508518;30;20083;-62
2022/06/11 04:39:10;;;;;;;3.58;1.20;;;;;;;;;;9522871;30;20071;-63
2022/06/11 04:44:06;;;;;;;3.47;2.25;;;;;;;;;;9523918;30;20110;-63
2022/06/11 04:49:00;;;;;;;4.75;2.10;;;;;;;;;;9518962;30;20056;-63
2022/06/11 04:53:55;;;;;;;4.68;2.03;;;;;;;;;;9510761;30;20094;-63
2022/06/11 04:58:51;;;;;;;5.00;1.88;;;;;;;;;;9505927;30;20508;-62
2022/06/11 05:03:52;;;;;;;2.72;2.13;;;;;;;;;;9516338;30;20064;-62
2022/06/11 05:08:46;;;;;;;3.40;2.20;;;;;;;;;;9516774;30;20064;-62
2022/06/11 05:13:40;;;;;;;3.33;2.03;;;;;;;;;;9507087;30;20052;-62
2022/06/11 05:18:34;;;;;;;2.22;2.00;;;;;;;;;;9512033;30;20508;-62
2022/06/11 05:23:30;;;;;;;2.88;2.10;;;;;;;;;;9496429;30;20143;-62
2022/06/11 05:28:28;;;;;;;5.32;2.30;;;;;;;;;;9523704;30;20467;-62
2022/06/11 05:33:24;;;;;;;2.83;2.47;;;;;;;;;;9500488;30;20091;-62
2022/06/11 05:38:21;;;;;;;1.95;1.40;;;;;;;;;;9518604;30;20072;-62
2022/06/11 05:43:16;;;;;;;4.50;1.50;;;;;;;;;;9509418;30;20131;-63
2022/06/11 05:48:10;;;;;;;6.05;1.40;;;;;;;;;;9508504;30;20048;-63
2022/06/11 05:53:07;;;;;;;6.50;1.30;;;;;;;;;;9496188;30;20056;-62
2022/06/11 05:58:02;;;;;;;10.63;1.55;;;;;;;;;;9500973;30;20056;-63
2022/06/11 06:02:56;;;;;;;4.03;1.25;;;;;;;;;;9507969;30;20141;-63
2022/06/11 06:07:51;;;;;;;6.32;2.75;;;;;;;;;;9508277;30;20060;-63
2022/06/11 06:12:45;;;;;;;1.70;1.20;;;;;;;;;;9518778;30;20059;-63
2022/06/11 06:17:39;;;;;;;2.25;1.52;;;;;;;;;;9509676;30;20140;-63
2022/06/11 06:22:34;;;;;;;1.08;0.98;;;;;;;;;;9507000;30;20087;-63
2022/06/11 06:27:29;;;;;;;5.18;1.25;;;;;;;;;;9512166;30;20056;-63
2022/06/11 06:32:24;;;;;;;7.78;1.00;;;;;;;;;;9522586;30;20122;-63
2022/06/11 06:37:20;;;;;;;1.88;1.25;;;;;;;;;;9507054;30;20156;-63
2022/06/11 06:42:18;;;;;;;1.92;1.77;;;;;;;;;;9507283;30;20084;-63
2022/06/11 06:47:14;;;;;;;1.40;1.20;;;;;;;;;;9506705;30;20139;-62
2022/06/11 06:52:09;;;;;;;5.63;1.38;;;;;;;;;;9519667;30;20127;-62
2022/06/11 06:57:04;;;;;;;1.95;0.98;;;;;;;;;;9516445;30;20083;-62
2022/06/11 07:01:59;;;;;;;1.63;0.90;;;;;;;;;;9506635;30;20071;-62
2022/06/11 07:06:54;;;;;;;1.30;1.20;;;;;;;;;;9506874;30;20048;-62
2022/06/11 07:11:49;;;;;;;6.28;2.78;;;;;;;;;;9506032;30;20056;-63
2022/06/11 07:16:51;;;;;;;1.65;1.25;;;;;;;;;;9505832;30;20080;-63
2022/06/11 07:21:49;;;;;;;1.17;1.08;;;;;;;;;;9500517;30;20098;-63
2022/06/11 07:26:48;;;;;;;7.13;1.20;;;;;;;;;;9504875;30;20084;-63
2022/06/11 07:31:44;;;;;;;11.38;2.95;;;;;;;;;;9500824;30;20429;-63
2022/06/11 07:36:38;;;;;;;2.40;1.40;;;;;;;;;;9501839;30;20060;-63
2022/06/11 07:41:32;;;;;;;5.95;1.63;;;;;;;;;;9504303;30;20110;-63
2022/06/11 07:46:26;;;;;;;3.97;1.55;;;;;;;;;;9513928;30;20144;-64
2022/06/11 07:51:20;;;;;;;3.55;1.58;;;;;;;;;;9517248;30;20067;-63
2022/06/11 07:56:15;;;;;;;7.97;1.70;;;;;;;;;;9505571;30;20132;-63
2022/06/11 08:01:09;;;;;;;6.15;1.85;;;;;;;;;;9505192;30;20056;-64
2022/06/11 08:06:05;;;;;;;1.73;1.63;;;;;;;;;;9505114;30;20048;-63
2022/06/11 08:11:01;;;;;;;6.13;1.37;;;;;;;;;;9514620;30;20560;-64
2022/06/11 08:15:56;;;;;;;3.55;1.42;;;;;;;;;;9494208;30;20095;-63
2022/06/11 08:20:51;;;;;;;1.27;1.17;;;;;;;;;;9520701;30;20060;-66
2022/06/11 08:25:46;;;;;;;1.52;1.42;;;;;;;;;;9524013;30;20052;-64
2022/06/11 08:30:40;;;;;;;2.42;1.67;;;;;;;;;;9517773;30;20063;-64
2022/06/11 08:35:36;;;;;;;6.25;1.25;;;;;;;;;;9511425;30;20095;-64
2022/06/11 08:40:52;;;;;;;1.88;1.23;;;;;;;;;;9510469;30;20170;-64
2022/06/11 08:45:50;;;;;;;4.30;1.30;;;;;;;;;;9518276;30;20052;-64
2022/06/11 08:50:52;;;;;;;3.00;1.30;;;;;;;;;;9508293;30;20115;-64
2022/06/11 08:55:48;;;;;;;5.13;1.30;;;;;;;;;;9495072;30;20068;-64
2022/06/11 09:01:07;;;;;;;1.40;1.10;;;;;;;;;;9510079;30;20059;-64
2022/06/11 09:06:18;;;;;;;1.42;1.33;;;;;;;;;;9510751;30;20084;-64
2022/06/11 09:11:42;;;;;;;3.85;1.13;;;;;;;;;;9523859;30;20063;-64
2022/06/11 09:16:58;;;;;;;7.30;1.35;;;;;;;;;;9508331;30;20052;-64
2022/06/11 09:21:58;;;;;;;1.10;1.00;;;;;;;;;;9510053;30;20064;-65
2022/06/11 09:27:17;;;;;;;1.20;1.10;;;;;;;;;;9508492;30;20063;-64
2022/06/11 09:32:15;;;;;;;6.72;1.80;;;;;;;;;;9510690;30;20064;-64
2022/06/11 09:37:25;;;;;;;2.03;1.40;;;;;;;;;;9509409;30;20060;-64
2022/06/11 09:42:24;;;;;;;2.58;1.25;;;;;;;;;;9501422;30;20064;-65
2022/06/11 09:47:42;;;;;;;8.48;1.23;;;;;;;;;;9508639;30;20421;-64
2022/06/11 09:52:41;;;;;;;3.85;1.95;;;;;;;;;;9508821;30;20068;-64
2022/06/11 09:57:48;;;;;;;2.38;1.63;;;;;;;;;;9493694;30;20139;-64
2022/06/11 10:03:52;;;;;;;2.45;1.65;;;;;;;;;;9506961;30;20056;-64
2022/06/11 10:08:43;;;;;;;2.28;1.00;;;;;;;;;;9500582;30;20071;-65
2022/06/11 10:14:30;;;;;;;4.70;1.43;;;;;;;;;;9504777;30;20056;-66
2022/06/11 10:19:37;;;;;;;1.48;1.20;;;;;;;;;;9413113;30;20107;-65
2022/06/11 10:24:35;;;;;;;3.28;1.10;;;;;;;;;;9514913;30;20436;-64
2022/06/11 10:29:37;;;;;;;4.78;1.00;;;;;;;;;;9512417;30;20053;-64
2022/06/11 10:34:31;;;;;;;6.05;1.10;;;;;;;;;;9510560;30;20488;-65
2022/06/11 10:40:03;;;;;;;2.83;1.08;;;;;;;;;;9511592;30;20064;-65
2022/06/11 10:44:57;;;;;;;1.50;1.15;;;;;;;;;;9518472;30;20485;-65
2022/06/11 10:50:03;;;;;;;4.13;1.40;;;;;;;;;;9519709;30;20064;-65
2022/06/11 10:54:59;;;;;;;4.87;1.10;;;;;;;;;;9519531;30;20428;-65
2022/06/11 11:00:07;;;;;;;6.43;1.35;;;;;;;;;;9510481;30;20094;-65
2022/06/11 11:05:11;;;;;;;3.03;0.95;;;;;;;;;;9513447;30;20521;-65
2022/06/11 11:10:19;;;;;;;2.15;1.10;;;;;;;;;;9505873;30;20180;-65
2022/06/11 11:15:18;;;;;;;2.03;1.35;;;;;;;;;;9503950;30;20052;-65
2022/06/11 11:20:35;;;;;;;3.55;1.10;;;;;;;;;;9503410;30;20084;-65
2022/06/11 11:25:39;;;;;;;5.45;0.90;;;;;;;;;;9500347;30;20134;-65
2022/06/11 11:30:36;;;;;;;5.22;0.95;;;;;;;;;;9512628;30;20520;-64
2022/06/11 11:35:39;;;;;;;1.98;1.10;;;;;;;;;;9505530;30;20071;-64
2022/06/11 11:40:35;;;;;;;1.02;0.70;;;;;;;;;;9520691;30;20505;-65
2022/06/11 11:45:56;;;;;;;3.55;1.13;;;;;;;;;;9517864;30;20052;-65
2022/06/11 11:50:54;;;;;;;1.58;1.08;;;;;;;;;;9493421;30;20551;-65
2022/06/11 11:56:19;;;;;;;1.10;0.68;;;;;;;;;;9507921;30;20060;-65
2022/06/11 12:01:16;;;;;;;3.38;1.02;;;;;;;;;;9532059;30;20116;-64
2022/06/11 12:06:14;;;;;;;1.00;0.90;;;;;;;;;;9490414;30;20056;-64
2022/06/11 12:11:23;;;;;;;2.42;1.00;;;;;;;;;;9535248;30;20060;-64
2022/06/11 12:16:26;;;;;;;1.00;0.90;;;;;;;;;;9510945;30;20067;-65
2022/06/11 12:21:25;;;;;;;1.00;0.80;;;;;;;;;;9504956;30;20135;-65
2022/06/11 12:26:25;;;;;;;2.72;0.60;;;;;;;;;;9505220;30;20048;-64
2022/06/11 12:31:19;;;;;;;5.55;0.93;;;;;;;;;;9504650;30;20094;-65
2022/06/11 12:36:19;;;;;;;3.43;1.20;;;;;;;;;;9516593;30;20051;-66
2022/06/11 12:41:32;;;;;;;2.45;0.77;;;;;;;;;;9507908;30;20068;-66
2022/06/11 12:46:30;;;;;;;1.15;0.80;;;;;;;;;;9498610;30;20064;-65
2022/06/11 12:51:42;;;;;;;3.58;0.85;;;;;;;;;;9503751;30;20060;-66
2022/06/11 12:56:48;;;;;;;2.00;0.70;;;;;;;;;;9504198;30;20086;-65
2022/06/11 13:02:09;;;;;;;1.80;0.50;;;;;;;;;;9511766;30;20052;-66
2022/06/11 13:07:18;;;;;;;2.72;0.80;;;;;;;;;;9506608;30;20085;-65
2022/06/11 13:12:33;;;;;;;3.92;0.70;;;;;;;;;;9516386;30;20409;-65
2022/06/11 13:17:58;;;;;;;3.88;0.80;;;;;;;;;;9532533;30;20060;-66
2022/06/11 13:23:15;;;;;;;1.40;0.70;;;;;;;;;;9529547;30;20063;-66
2022/06/11 13:28:17;;;;;;;3.13;0.80;;;;;;;;;;9503294;30;20064;-66
2022/06/11 13:33:30;;;;;;;0.80;0.55;;;;;;;;;;9514746;30;20052;-65
2022/06/11 13:38:35;;;;;;;2.33;1.23;;;;;;;;;;9522158;30;20577;-66
2022/06/11 13:43:54;;;;;;;0.77;0.77;;;;;;;;;;9508963;30;20064;-66
2022/06/11 13:49:09;;;;;;;2.15;1.35;;;;;;;;;;9508317;30;20151;-66
2022/06/11 14:00:01;;;;;;;0.82;0.60;;;;;;;;;;9508688;30;20071;-66
2022/06/11 14:05:04;;;;;;;0.73;0.70;;;;;;;;;;9507952;30;20139;-66
2022/06/11 14:10:26;;;;;;;1.63;0.70;;;;;;;;;;9517970;30;20429;-65
2022/06/11 14:15:19;;;;;;;2.17;0.93;;;;;;;;;;9510885;30;20147;-65
2022/06/11 14:20:33;;;;;;;2.70;1.13;;;;;;;;;;9507850;30;20102;-66
2022/06/11 14:25:37;;;;;;;2.28;0.80;;;;;;;;;;9444143;30;20084;-65
2022/06/11 14:30:31;;;;;;;1.77;0.95;;;;;;;;;;9509426;30;20496;-65
2022/06/11 14:35:34;;;;;;;0.85;0.73;;;;;;;;;;9507565;30;20424;-65
2022/06/11 14:40:34;;;;;;;0.70;0.63;;;;;;;;;;9506538;30;20178;-65
2022/06/11 14:45:37;;;;;;;2.78;1.33;;;;;;;;;;9506843;30;20500;-65
2022/06/11 14:50:48;;;;;;;1.15;0.80;;;;;;;;;;9506985;30;20060;-65
2022/06/11 14:55:44;;;;;;;2.10;0.90;;;;;;;;;;9515461;30;20052;-65
2022/06/11 15:00:53;;;;;;;1.00;0.80;;;;;;;;;;9506859;30;20056;-64
2022/06/11 15:05:55;;;;;;;0.77;0.77;;;;;;;;;;9518431;30;20082;-65
2022/06/11 15:11:01;;;;;;;2.63;0.85;;;;;;;;;;9506289;30;20457;-65
2022/06/11 15:15:57;;;;;;;1.50;0.88;;;;;;;;;;9506902;30;20527;-65
2022/06/11 15:21:32;;;;;;;2.10;0.77;;;;;;;;;;9505866;30;20060;-65
2022/06/11 15:26:30;;;;;;;4.15;0.80;;;;;;;;;;9489635;30;20067;-65
2022/06/11 15:31:25;;;;;;;1.05;0.93;;;;;;;;;;9490016;30;20060;-65
2022/06/11 15:36:21;;;;;;;3.28;1.45;;;;;;;;;;9505455;30;20527;-65
2022/06/11 15:41:21;;;;;;;1.55;0.98;;;;;;;;;;9505914;30;20586;-65
2022/06/11 15:46:27;;;;;;;3.15;1.00;;;;;;;;;;9505427;30;20114;-65
2022/06/11 15:51:23;;;;;;;4.80;1.10;;;;;;;;;;9517169;30;20064;-65
2022/06/11 15:56:28;;;;;;;2.13;0.82;;;;;;;;;;9507819;30;20496;-65
2022/06/11 16:01:21;;;;;;;1.38;0.93;;;;;;;;;;9523482;30;20106;-65
2022/06/11 16:06:26;;;;;;;4.30;1.00;;;;;;;;;;9521994;30;20060;-65
2022/06/11 16:11:29;;;;;;;2.60;1.30;;;;;;;;;;9510357;30;20060;-65
2022/06/11 16:16:32;;;;;;;5.85;1.10;;;;;;;;;;9516606;30;20056;-64
2022/06/11 16:21:27;;;;;;;4.70;0.90;;;;;;;;;;9517246;30;20067;-65
2022/06/11 16:26:30;;;;;;;3.33;1.10;;;;;;;;;;9505883;30;20467;-65
2022/06/11 16:31:24;;;;;;;4.15;1.00;;;;;;;;;;9516232;30;20143;-65
2022/06/11 16:36:28;;;;;;;0.70;0.70;;;;;;;;;;9493662;30;20068;-65
2022/06/11 16:46:40;;;;;;;5.57;1.40;;;;;;;;;;9503888;30;20435;-64
2022/06/11 16:56:49;;;;;;;1.40;1.20;;;;;;;;;;9516783;30;20529;-65
2022/06/11 17:01:46;;;;;;;4.35;1.02;;;;;;;;;;9522418;30;20044;-64
2022/06/11 17:06:57;;;;;;;2.30;1.17;;;;;;;;;;9510629;30;20415;-65
2022/06/11 17:12:06;;;;;;;1.10;1.10;;;;;;;;;;9506044;30;20330;-64
2022/06/11 17:17:00;;;;;;;2.17;1.00;;;;;;;;;;9510121;30;20610;-65
2022/06/11 17:22:00;;;;;;;1.27;1.17;;;;;;;;;;9517019;30;20087;-64
2022/06/11 17:26:55;;;;;;;4.18;1.30;;;;;;;;;;9499696;30;20056;-64
2022/06/11 17:31:51;;;;;;;1.93;1.30;;;;;;;;;;9528840;30;20555;-65
2022/06/11 17:36:47;;;;;;;2.17;1.13;;;;;;;;;;9528625;30;20111;-64
2022/06/11 17:41:43;;;;;;;3.87;1.70;;;;;;;;;;9509663;30;20052;-64
2022/06/11 17:46:37;;;;;;;2.03;1.70;;;;;;;;;;9508705;30;20082;-66
2022/06/11 17:51:32;;;;;;;2.47;1.35;;;;;;;;;;9509001;30;20113;-64
2022/06/11 17:56:26;;;;;;;1.83;1.52;;;;;;;;;;9493841;30;20064;-64
2022/06/11 18:01:29;;;;;;;3.92;1.65;;;;;;;;;;9508417;30;20061;-64
2022/06/11 18:06:23;;;;;;;2.78;1.90;;;;;;;;;;9493322;30;20066;-63
2022/06/11 18:11:17;;;;;;;2.75;1.88;;;;;;;;;;9504154;30;20538;-64
2022/06/11 18:16:15;;;;;;;2.63;2.30;;;;;;;;;;9507647;30;20058;-64
2022/06/11 18:25:16;;;;;;;6.83;3.37;;;;;;;;;;9507978;30;20051;-64
2022/06/11 18:26:25;;;;;;;4.32;3.28;;;;;;;;;;9506906;30;20096;-64
2022/06/11 18:31:22;;;;;;;7.00;4.50;;;;;;;;;;9491783;30;20113;-64
2022/06/11 18:36:16;;;;;;;6.32;5.00;;;;;;;;;;9517087;30;20064;-64
2022/06/11 18:41:10;;;;;;;16.38;6.57;;;;;;;;;;9522992;30;20099;-64
2022/06/11 18:46:04;;;;;;;11.90;6.30;;;;;;;;;;9514169;30;20543;-64
2022/06/11 18:50:57;;;;;;;4.10;3.65;;;;;;;;;;9513576;30;20051;-64
2022/06/11 18:55:52;;;;;;;3.03;2.35;;;;;;;;;;9518098;30;20453;-64
2022/06/11 19:00:46;;;;;;;4.25;2.40;;;;;;;;;;9507811;30;20590;-64
2022/06/11 19:05:40;;;;;;;6.47;1.77;;;;;;;;;;9506049;30;20092;-64
2022/06/11 19:10:40;;;;;;;4.97;3.38;;;;;;;;;;9506169;30;20095;-64
2022/06/11 19:15:33;;;;;;;5.50;3.83;;;;;;;;;;9506761;30;20056;-64
2022/06/11 19:20:30;;;;;;;5.00;3.47;;;;;;;;;;9506314;30;20052;-64
2022/06/11 19:25:25;;;;;;;4.93;2.85;;;;;;;;;;9505975;30;20570;-64
2022/06/11 19:30:23;;;;;;;2.88;2.65;;;;;;;;;;9505517;30;20075;-64
2022/06/11 19:35:16;;;;;;;;;;;;;;;;;;9512561;30;20441;-64
2022/06/11 19:40:30;;;;;;;3.50;2.65;;;;;;;;;;9510435;30;20016;-64
2022/06/11 19:45:25;;;;;;;4.45;2.55;;;;;;;;;;9519921;30;20067;-64
2022/06/11 19:50:20;;;;;;;3.08;2.13;;;;;;;;;;9507258;30;20060;-64
2022/06/11 19:55:18;;;;;;;4.60;2.08;;;;;;;;;;9506698;30;20067;-64
2022/06/11 20:00:14;;;;;;;5.63;2.55;;;;;;;;;;9523461;30;20078;-64
2022/06/11 20:05:09;;;;;;;3.17;2.20;;;;;;;;;;9519524;30;20080;-64
2022/06/11 20:10:04;;;;;;;8.80;2.47;;;;;;;;;;9507386;30;20416;-64
2022/06/11 20:14:57;;;;;;;3.33;2.53;;;;;;;;;;9511799;30;20056;-64
2022/06/11 20:19:51;;;;;;;3.40;2.60;;;;;;;;;;9494360;30;20421;-64
2022/06/11 20:24:45;;;;;;;7.18;4.32;;;;;;;;;;9511755;30;20083;-64
2022/06/11 20:29:40;;;;;;;4.55;3.25;;;;;;;;;;9511736;30;20087;-64
2022/06/11 20:34:36;;;;;;;;;;;;;;;;;;9503111;30;20087;-63
2022/06/11 20:39:31;;;;;;;7.43;2.42;;;;;;;;;;9515993;30;20299;-64
2022/06/11 20:44:25;;;;;;;2.97;2.38;;;;;;;;;;9511798;30;20155;-63
2022/06/11 20:54:32;;;;;;;10.68;2.53;;;;;;;;;;9520048;30;20105;-64
2022/06/11 20:59:27;;;;;;;3.80;2.50;;;;;;;;;;9510780;30;20135;-63
2022/06/11 21:04:23;;;;;;;4.47;2.58;;;;;;;;;;9510286;30;20052;-63
2022/06/11 21:09:24;;;;;;;4.75;2.50;;;;;;;;;;9510599;30;20550;-64
2022/06/11 21:14:22;;;;;;;4.80;2.40;;;;;;;;;;9504457;30;20078;-63
2022/06/11 21:19:22;;;;;;;2.63;2.37;;;;;;;;;;9510018;30;20055;-63
2022/06/11 21:24:17;;;;;;;3.38;2.47;;;;;;;;;;9511115;30;20080;-64
2022/06/11 21:29:11;;;;;;;3.40;2.45;;;;;;;;;;9512378;30;20052;-63
2022/06/11 21:34:09;;;;;;;2.22;2.08;;;;;;;;;;9522045;30;20063;-64
2022/06/11 21:39:04;;;;;;;2.83;2.43;;;;;;;;;;9524780;30;20155;-64
2022/06/11 21:43:58;;;;;;;3.28;2.97;;;;;;;;;;9511419;30;20052;-64
2022/06/11 21:48:52;;;;;;;4.35;2.50;;;;;;;;;;9523913;30;20044;-63
2022/06/11 21:53:51;;;;;;;4.57;2.70;;;;;;;;;;9518529;30;20075;-63
2022/06/11 21:58:45;;;;;;;3.08;2.35;;;;;;;;;;9508838;30;20064;-63
2022/06/11 22:03:39;;;;;;;6.97;2.13;;;;;;;;;;9508426;30;20148;-63
2022/06/11 22:08:34;;;;;;;2.78;2.10;;;;;;;;;;9507988;30;20059;-63
2022/06/11 22:13:29;;;;;;;3.35;2.55;;;;;;;;;;9508151;30;20072;-63
2022/06/11 22:18:23;;;;;;;6.05;3.67;;;;;;;;;;9508144;30;20087;-64
2022/06/11 22:23:16;;;;;;;3.45;2.53;;;;;;;;;;9508074;30;20432;-63
2022/06/11 22:28:10;;;;;;;3.75;2.20;;;;;;;;;;9507616;30;20519;-63
2022/06/11 22:33:04;;;;;;;2.53;2.33;;;;;;;;;;9492520;30;20052;-64
2022/06/11 22:37:59;;;;;;;2.13;1.92;;;;;;;;;;9517835;30;20408;-64
2022/06/11 22:42:52;;;;;;;4.40;2.22;;;;;;;;;;9524491;30;20075;-63
2022/06/11 22:47:46;;;;;;;4.60;2.78;;;;;;;;;;9506669;30;20070;-63
2022/06/11 22:52:41;;;;;;;3.22;2.22;;;;;;;;;;9506614;30;20056;-63
2022/06/11 22:57:35;;;;;;;2.33;2.08;;;;;;;;;;9507417;30;20060;-63
2022/06/11 23:02:30;;;;;;;2.30;2.10;;;;;;;;;;9498903;30;20068;-63
2022/06/11 23:07:24;;;;;;;2.75;2.25;;;;;;;;;;9506204;30;20060;-63
2022/06/11 23:12:19;;;;;;;4.22;2.00;;;;;;;;;;9505851;30;20107;-64
2022/06/11 23:17:15;;;;;;;2.20;2.00;;;;;;;;;;9505690;30;20067;-63
2022/06/11 23:22:08;;;;;;;3.97;2.28;;;;;;;;;;9506201;30;20052;-63
2022/06/11 23:27:02;;;;;;;2.63;2.28;;;;;;;;;;9505479;30;20060;-64
2022/06/11 23:31:56;;;;;;;2.30;2.10;;;;;;;;;;9508618;30;20464;-63
2022/06/11 23:36:51;;;;;;;5.75;2.35;;;;;;;;;;9525184;30;20113;-63
2022/06/11 23:41:47;;;;;;;8.07;2.30;;;;;;;;;;9509540;30;20139;-63
2022/06/11 23:46:42;;;;;;;5.30;2.10;;;;;;;;;;9504817;30;20058;-63
2022/06/11 23:51:39;;;;;;;3.65;2.20;;;;;;;;;;9517715;30;20060;-63
2022/06/11 23:56:35;;;;;;;4.60;2.40;;;;;;;;;;9506056;30;20064;-63
